Time;durP1;ratioP1;P1;durP2;ratioP2;P2;SDS_P1;SDS_P2;PMS_P1;PMS_P2;Temp;Humidity;BMP_temperature;BMP_pressure;BME280_temperature;BME280_humidity;BME280_pressure;Samples;Min_cycle;Max_cycle;Signal;HPM_P1;HPM_P2
2023/06/01 00:03:29;;;;;;;;;;;15.20;99.90;;;;;;8394034;28;20338;-74
2023/06/01 00:07:32;;;;;;;;;;;15.20;99.90;;;;;;8383658;28;19958;-74
2023/06/01 00:11:34;;;;;;;;;;;15.20;99.90;;;;;;8388495;28;19982;-74
2023/06/01 00:15:36;;;;;;;;;;;15.20;99.90;;;;;;8387447;28;20376;-74
2023/06/01 00:19:38;;;;;;;;;;;15.10;99.90;;;;;;8388098;28;19925;-74
2023/06/01 00:23:40;;;;;;;;;;;15.00;99.90;;;;;;8394654;28;20380;-74
2023/06/01 00:27:42;;;;;;;;;;;15.00;99.90;;;;;;8391389;28;20284;-74
2023/06/01 00:31:44;;;;;;;;;;;15.00;99.90;;;;;;8395609;28;19925;-74
2023/06/01 00:35:46;;;;;;;;;;;15.00;99.90;;;;;;8391009;28;19931;-74
2023/06/01 00:39:48;;;;;;;;;;;14.90;99.90;;;;;;8386618;28;19932;-73
2023/06/01 00:43:49;;;;;;;;;;;14.80;99.90;;;;;;8397226;28;19978;-74
2023/06/01 00:47:52;;;;;;;;;;;14.80;99.90;;;;;;8372543;28;19928;-74
2023/06/01 00:51:54;;;;;;;;;;;14.70;99.90;;;;;;8408660;28;19978;-74
2023/06/01 00:55:56;;;;;;;;;;;14.70;99.90;;;;;;8393655;28;20420;-74
2023/06/01 00:59:57;;;;;;;;;;;14.60;99.90;;;;;;8369519;28;19935;-73
2023/06/01 01:04:00;;;;;;;;;;;14.60;99.90;;;;;;8361939;28;19932;-74
2023/06/01 01:08:14;;;;;;;;;;;14.50;99.90;;;;;;8378920;28;19932;-74
2023/06/01 01:12:19;;;;;;;;;;;14.40;99.90;;;;;;8376740;28;19924;-73
2023/06/01 01:16:29;;;;;;;;;;;14.40;99.90;;;;;;8381832;28;19929;-74
2023/06/01 01:30:46;;;;;;;;;;;14.30;99.90;;;;;;8350017;28;19926;-73
2023/06/01 01:34:48;;;;;;;;;;;14.20;99.90;;;;;;8391428;28;19936;-74
2023/06/01 01:38:50;;;;;;;;;;;14.20;99.90;;;;;;8390100;28;19924;-74
2023/06/01 01:42:52;;;;;;;;;;;14.20;99.90;;;;;;8389420;28;19978;-74
2023/06/01 01:46:58;;;;;;;;;;;14.20;99.90;;;;;;8388231;28;19924;-74
2023/06/01 01:51:02;;;;;;;;;;;14.20;99.90;;;;;;8389776;28;20298;-74
2023/06/01 01:55:08;;;;;;;;;;;14.20;99.90;;;;;;8383686;28;19978;-74
2023/06/01 01:59:10;;;;;;;;;;;14.10;99.90;;;;;;8369377;28;19924;-74
2023/06/01 02:03:13;;;;;;;;;;;14.00;99.90;;;;;;8385261;28;19935;-73
2023/06/01 02:07:15;;;;;;;;;;;13.90;99.90;;;;;;8380679;28;19928;-73
2023/06/01 02:11:17;;;;;;;;;;;13.90;99.90;;;;;;8384316;28;20265;-74
2023/06/01 02:20:22;;;;;;;;;;;13.80;99.90;;;;;;8383161;28;19955;-73
2023/06/01 02:24:24;;;;;;;;;;;13.80;99.90;;;;;;8384247;28;20434;-74
2023/06/01 02:28:26;;;;;;;;;;;13.80;99.90;;;;;;8392723;28;19932;-73
2023/06/01 02:32:30;;;;;;;;;;;13.80;99.90;;;;;;8389083;28;19925;-73
2023/06/01 02:36:32;;;;;;;;;;;13.80;99.90;;;;;;8391297;28;19929;-73
2023/06/01 02:40:33;;;;;;;;;;;13.70;99.90;;;;;;8388437;28;20392;-73
2023/06/01 02:44:35;;;;;;;;;;;13.70;99.90;;;;;;8372817;28;19974;-74
2023/06/01 02:48:37;;;;;;;;;;;13.60;99.90;;;;;;8384907;28;19932;-74
2023/06/01 02:52:38;;;;;;;;;;;13.70;99.90;;;;;;8393371;28;19962;-74
2023/06/01 02:56:40;;;;;;;;;;;13.70;99.90;;;;;;8370667;28;19924;-74
2023/06/01 03:00:45;;;;;;;;;;;13.70;99.90;;;;;;8382747;28;20281;-74
2023/06/01 03:04:48;;;;;;;;;;;13.70;99.90;;;;;;8387306;28;19924;-73
2023/06/01 03:08:50;;;;;;;;;;;13.70;99.90;;;;;;8385104;28;19925;-73
2023/06/01 03:12:51;;;;;;;;;;;13.70;99.90;;;;;;8390599;28;19935;-73
2023/06/01 03:16:53;;;;;;;;;;;13.70;99.90;;;;;;8370991;28;20379;-74
2023/06/01 03:20:55;;;;;;;;;;;13.70;99.90;;;;;;8383173;28;19928;-74
2023/06/01 03:24:57;;;;;;;;;;;13.70;99.90;;;;;;8385616;28;20459;-73
2023/06/01 03:28:59;;;;;;;;;;;13.70;99.90;;;;;;8386785;28;19947;-74
2023/06/01 03:33:01;;;;;;;;;;;13.70;99.90;;;;;;8368371;28;20376;-73
2023/06/01 03:37:04;;;;;;;;;;;13.70;99.90;;;;;;8382063;28;19924;-73
2023/06/01 03:41:05;;;;;;;;;;;13.70;99.90;;;;;;8381497;28;19925;-73
2023/06/01 03:45:08;;;;;;;;;;;13.70;99.90;;;;;;8381775;28;19924;-73
2023/06/01 03:49:10;;;;;;;;;;;13.60;99.90;;;;;;8386877;28;20388;-72
2023/06/01 03:53:11;;;;;;;;;;;13.60;99.90;;;;;;8392485;28;19986;-73
2023/06/01 03:57:13;;;;;;;;;;;13.50;99.90;;;;;;8393670;28;19925;-73
2023/06/01 04:01:19;;;;;;;;;;;13.50;99.90;;;;;;8394160;28;19979;-73
2023/06/01 04:05:22;;;;;;;;;;;13.40;99.90;;;;;;8388334;28;19939;-74
2023/06/01 04:09:24;;;;;;;;;;;13.40;99.90;;;;;;8387190;28;19924;-72
2023/06/01 04:13:25;;;;;;;;;;;13.30;99.90;;;;;;8389142;28;19925;-72
2023/06/01 04:17:29;;;;;;;;;;;13.30;99.90;;;;;;8392743;28;20026;-72
2023/06/01 04:21:32;;;;;;;;;;;13.40;99.90;;;;;;8394470;28;19932;-72
2023/06/01 04:25:34;;;;;;;;;;;13.40;99.90;;;;;;8392183;28;19924;-73
2023/06/01 04:29:39;;;;;;;;;;;13.40;99.90;;;;;;8389275;28;19924;-74
2023/06/01 04:33:41;;;;;;;;;;;13.40;99.90;;;;;;8400198;28;20289;-73
2023/06/01 04:37:43;;;;;;;;;;;13.40;99.90;;;;;;8383471;28;19936;-73
2023/06/01 04:41:46;;;;;;;;;;;13.40;99.90;;;;;;8373366;28;20331;-72
2023/06/01 04:45:49;;;;;;;;;;;13.40;99.90;;;;;;8380299;28;19955;-72
2023/06/01 04:49:51;;;;;;;;;;;13.40;99.90;;;;;;8387839;28;19929;-73
2023/06/01 04:53:53;;;;;;;;;;;13.40;99.90;;;;;;8376293;28;19924;-73
2023/06/01 04:57:55;;;;;;;;;;;13.40;99.90;;;;;;8380314;28;19933;-73
2023/06/01 05:01:57;;;;;;;;;;;13.50;99.90;;;;;;8385014;28;19958;-73
2023/06/01 05:05:59;;;;;;;;;;;13.50;99.90;;;;;;8366608;28;19928;-73
2023/06/01 05:10:05;;;;;;;;;;;13.50;99.90;;;;;;8389601;28;20300;-73
2023/06/01 05:14:07;;;;;;;;;;;13.40;99.90;;;;;;8383110;28;19966;-73
2023/06/01 05:18:09;;;;;;;;;;;13.40;99.90;;;;;;8390181;28;20551;-72
2023/06/01 05:22:11;;;;;;;;;;;13.50;99.90;;;;;;8385266;28;19932;-73
2023/06/01 05:26:13;;;;;;;;;;;13.50;99.90;;;;;;8384413;28;20388;-72
2023/06/01 05:30:15;;;;;;;;;;;13.50;99.90;;;;;;8386849;28;20016;-72
2023/06/01 05:34:17;;;;;;;;;;;13.50;99.90;;;;;;8378015;28;19985;-73
2023/06/01 05:38:18;;;;;;;;;;;13.50;99.90;;;;;;8384501;28;19974;-73
2023/06/01 05:42:20;;;;;;;;;;;13.50;99.90;;;;;;8384326;28;19928;-73
2023/06/01 05:46:24;;;;;;;;;;;13.50;99.90;;;;;;8390301;28;19943;-73
2023/06/01 05:50:26;;;;;;;;;;;13.50;99.90;;;;;;8385986;28;19967;-72
2023/06/01 05:54:27;;;;;;;;;;;13.60;99.90;;;;;;8364810;28;19928;-72
2023/06/01 05:58:29;;;;;;;;;;;13.60;99.90;;;;;;8386823;28;19931;-72
2023/06/01 06:02:31;;;;;;;;;;;13.70;99.90;;;;;;8388056;28;19928;-73
2023/06/01 06:06:32;;;;;;;;;;;13.70;99.90;;;;;;8381533;28;19928;-72
2023/06/01 06:10:34;;;;;;;;;;;13.70;99.90;;;;;;8366755;28;19925;-72
2023/06/01 06:14:36;;;;;;;;;;;13.60;99.90;;;;;;8373030;28;19969;-72
2023/06/01 06:18:39;;;;;;;;;;;13.60;99.90;;;;;;8385152;28;19990;-73
2023/06/01 06:22:41;;;;;;;;;;;13.60;99.90;;;;;;8391761;28;19928;-72
2023/06/01 06:26:43;;;;;;;;;;;13.70;99.90;;;;;;8380328;28;20407;-72
2023/06/01 06:30:47;;;;;;;;;;;13.70;99.90;;;;;;8390692;28;20201;-72
2023/06/01 06:34:48;;;;;;;;;;;13.70;99.90;;;;;;8393610;28;19984;-72
2023/06/01 06:38:50;;;;;;;;;;;13.80;99.90;;;;;;8395049;28;20380;-72
2023/06/01 06:42:52;;;;;;;;;;;13.80;99.90;;;;;;8387642;28;19936;-72
2023/06/01 06:46:53;;;;;;;;;;;13.80;99.90;;;;;;8393683;28;19925;-71
2023/06/01 06:50:56;;;;;;;;;;;13.90;99.90;;;;;;8392131;28;19932;-72
2023/06/01 06:54:57;;;;;;;;;;;14.00;99.90;;;;;;8397003;28;19928;-72
2023/06/01 06:58:59;;;;;;;;;;;14.00;99.90;;;;;;8391455;28;19947;-72
2023/06/01 07:03:08;;;;;;;;;;;14.00;99.90;;;;;;8401186;28;19928;-72
2023/06/01 07:07:10;;;;;;;;;;;14.10;99.90;;;;;;8384324;28;19946;-73
2023/06/01 07:11:12;;;;;;;;;;;14.10;99.90;;;;;;8394260;28;19978;-73
2023/06/01 07:15:14;;;;;;;;;;;14.20;99.90;;;;;;8379237;28;20383;-72
2023/06/01 07:19:16;;;;;;;;;;;14.20;99.90;;;;;;8397804;28;19931;-72
2023/06/01 07:23:18;;;;;;;;;;;14.30;99.90;;;;;;8401725;28;19924;-72
2023/06/01 07:27:20;;;;;;;;;;;14.40;99.90;;;;;;8387059;28;19925;-72
2023/06/01 07:31:23;;;;;;;;;;;14.40;99.90;;;;;;8374746;28;19935;-73
2023/06/01 07:35:24;;;;;;;;;;;14.40;99.90;;;;;;8395755;28;19993;-72
2023/06/01 07:39:26;;;;;;;;;;;14.40;99.90;;;;;;8403486;28;19924;-72
2023/06/01 07:43:28;;;;;;;;;;;14.50;99.90;;;;;;8397264;28;19963;-72
2023/06/01 07:47:29;;;;;;;;;;;14.70;99.90;;;;;;8396904;28;19924;-72
2023/06/01 07:51:31;;;;;;;;;;;15.00;99.90;;;;;;8395849;28;19935;-72
2023/06/01 07:55:33;;;;;;;;;;;15.30;99.90;;;;;;8404592;28;19928;-72
2023/06/01 07:59:35;;;;;;;;;;;15.50;99.90;;;;;;8394750;28;19924;-72
2023/06/01 08:03:36;;;;;;;;;;;15.60;99.90;;;;;;8392355;28;19933;-72
2023/06/01 08:07:38;;;;;;;;;;;15.60;99.90;;;;;;8397413;28;19931;-72
2023/06/01 08:11:40;;;;;;;;;;;15.50;99.90;;;;;;8403519;28;20020;-72
2023/06/01 08:15:42;;;;;;;;;;;15.60;99.90;;;;;;8406350;28;19934;-72
2023/06/01 08:19:45;;;;;;;;;;;15.70;99.90;;;;;;8404730;28;19924;-72
2023/06/01 08:23:47;;;;;;;;;;;15.80;99.90;;;;;;8395826;28;20277;-71
2023/06/01 08:27:49;;;;;;;;;;;15.80;99.90;;;;;;8393210;28;20047;-72
2023/06/01 08:31:51;;;;;;;;;;;15.80;99.90;;;;;;8402668;28;20272;-72
2023/06/01 08:35:53;;;;;;;;;;;15.80;99.90;;;;;;8399612;28;19928;-72
2023/06/01 08:39:55;;;;;;;;;;;15.70;99.90;;;;;;8385387;28;19928;-72
2023/06/01 08:44:02;;;;;;;;;;;15.80;99.90;;;;;;8400287;28;20450;-72
2023/06/01 08:48:08;;;;;;;;;;;15.70;99.90;;;;;;8395741;28;19924;-72
2023/06/01 08:52:13;;;;;;;;;;;15.70;99.90;;;;;;8405221;28;20432;-73
2023/06/01 08:56:15;;;;;;;;;;;15.70;99.90;;;;;;8397346;28;20488;-72
2023/06/01 09:00:17;;;;;;;;;;;15.70;99.90;;;;;;8404119;28;19985;-72
2023/06/01 09:04:18;;;;;;;;;;;15.70;99.90;;;;;;8396246;28;20007;-72
2023/06/01 09:08:22;;;;;;;;;;;15.80;99.90;;;;;;8365921;28;19971;-72
2023/06/01 09:12:25;;;;;;;;;;;15.90;99.90;;;;;;8366408;28;19943;-72
2023/06/01 09:16:37;;;;;;;;;;;16.00;99.90;;;;;;8345841;28;20341;-72
2023/06/01 09:20:39;;;;;;;;;;;16.10;99.90;;;;;;8361081;28;20134;-72
2023/06/01 09:24:40;;;;;;;;;;;16.20;99.90;;;;;;8361975;28;19925;-72
2023/06/01 09:28:53;;;;;;;;;;;16.20;99.90;;;;;;8357295;28;19932;-72
2023/06/01 09:33:14;;;;;;;;;;;16.30;99.90;;;;;;8356222;28;19935;-73
2023/06/01 09:37:16;;;;;;;;;;;16.30;99.90;;;;;;8368356;28;19924;-73
2023/06/01 09:41:20;;;;;;;;;;;16.30;99.90;;;;;;8361515;28;19928;-72
2023/06/01 09:45:23;;;;;;;;;;;16.30;99.90;;;;;;8359356;28;19924;-72
2023/06/01 09:49:26;;;;;;;;;;;16.30;99.90;;;;;;8351624;28;20006;-73
2023/06/01 09:53:28;;;;;;;;;;;16.30;99.90;;;;;;8340829;28;19928;-73
2023/06/01 09:57:29;;;;;;;;;;;16.30;99.90;;;;;;8358772;28;19985;-72
2023/06/01 10:01:31;;;;;;;;;;;16.40;99.90;;;;;;8347832;28;19929;-72
2023/06/01 10:05:34;;;;;;;;;;;16.50;99.90;;;;;;8349487;28;19932;-73
2023/06/01 10:09:38;;;;;;;;;;;16.60;99.90;;;;;;8351033;28;19976;-72
2023/06/01 10:13:41;;;;;;;;;;;16.70;99.90;;;;;;8360171;28;20023;-73
2023/06/01 10:17:43;;;;;;;;;;;16.70;99.90;;;;;;8357956;28;19924;-72
2023/06/01 10:21:45;;;;;;;;;;;16.80;99.90;;;;;;8355984;28;19982;-72
2023/06/01 10:25:48;;;;;;;;;;;16.80;99.90;;;;;;8363993;28;19939;-73
2023/06/01 10:29:51;;;;;;;;;;;16.80;99.90;;;;;;8368863;28;19928;-73
2023/06/01 10:33:54;;;;;;;;;;;16.90;99.90;;;;;;8360812;28;19932;-73
2023/06/01 10:38:09;;;;;;;;;;;16.90;99.90;;;;;;8362709;28;19981;-71
2023/06/01 10:42:12;;;;;;;;;;;17.00;99.90;;;;;;8365851;28;19983;-72
2023/06/01 10:46:33;;;;;;;;;;;17.10;99.90;;;;;;8362494;28;19933;-72
2023/06/01 10:50:35;;;;;;;;;;;17.10;99.90;;;;;;8364741;28;19931;-73
2023/06/01 10:54:37;;;;;;;;;;;17.20;99.90;;;;;;8364892;28;19925;-72
2023/06/01 10:58:39;;;;;;;;;;;17.30;99.90;;;;;;8360819;28;19986;-72
2023/06/01 11:02:48;;;;;;;;;;;17.30;99.90;;;;;;8364270;28;19928;-72
2023/06/01 11:06:49;;;;;;;;;;;17.30;99.90;;;;;;8389801;28;19933;-73
2023/06/01 11:10:55;;;;;;;;;;;17.30;99.90;;;;;;8377387;28;19944;-72
2023/06/01 11:15:12;;;;;;;;;;;17.30;99.90;;;;;;8360866;28;21721;-72
2023/06/01 11:19:24;;;;;;;;;;;17.40;99.90;;;;;;8366265;28;19933;-73
2023/06/01 11:23:26;;;;;;;;;;;17.50;99.90;;;;;;8360821;28;19939;-71
2023/06/01 11:27:27;;;;;;;;;;;17.50;99.90;;;;;;8362029;28;20413;-72
2023/06/01 11:31:33;;;;;;;;;;;17.50;99.90;;;;;;8362496;28;20003;-72
2023/06/01 11:35:35;;;;;;;;;;;17.40;99.90;;;;;;8366630;28;19935;-72
2023/06/01 11:39:37;;;;;;;;;;;17.40;99.90;;;;;;8367973;28;20399;-72
2023/06/01 11:43:39;;;;;;;;;;;17.40;99.90;;;;;;8368174;28;19940;-72
2023/06/01 11:47:41;;;;;;;;;;;17.50;99.90;;;;;;8360619;28;19932;-72
2023/06/01 11:51:43;;;;;;;;;;;17.50;99.90;;;;;;8360081;28;19955;-72
2023/06/01 11:55:54;;;;;;;;;;;17.50;99.90;;;;;;8359672;28;19933;-73
2023/06/01 11:59:59;;;;;;;;;;;17.50;99.90;;;;;;8358549;28;19929;-72
2023/06/01 12:04:02;;;;;;;;;;;17.50;99.90;;;;;;8361808;28;19960;-72
2023/06/01 12:08:04;;;;;;;;;;;17.60;99.90;;;;;;8366696;28;19932;-72
2023/06/01 12:12:08;;;;;;;;;;;17.50;99.90;;;;;;8365429;28;20000;-72
2023/06/01 12:16:10;;;;;;;;;;;17.50;99.90;;;;;;8358802;28;19939;-72
2023/06/01 12:20:29;;;;;;;;;;;17.50;99.90;;;;;;8363235;28;19975;-72
2023/06/01 12:24:35;;;;;;;;;;;17.60;99.90;;;;;;8359722;28;20403;-72
2023/06/01 12:28:46;;;;;;;;;;;17.70;99.90;;;;;;8359675;28;20376;-72
2023/06/01 12:32:48;;;;;;;;;;;17.70;99.90;;;;;;8354780;28;19982;-73
2023/06/01 12:36:50;;;;;;;;;;;17.60;99.90;;;;;;8360615;28;20036;-73
2023/06/01 12:41:21;;;;;;;;;;;17.60;99.90;;;;;;8369899;28;19955;-72
2023/06/01 12:45:23;;;;;;;;;;;17.60;99.90;;;;;;8357343;28;20319;-72
2023/06/01 12:49:25;;;;;;;;;;;17.50;99.90;;;;;;8357471;28;19935;-72
2023/06/01 12:53:27;;;;;;;;;;;17.40;99.90;;;;;;8361145;28;20394;-72
2023/06/01 12:57:29;;;;;;;;;;;17.30;99.90;;;;;;8356348;28;19925;-72
2023/06/01 13:01:31;;;;;;;;;;;17.30;99.90;;;;;;8359044;28;19924;-73
2023/06/01 13:05:33;;;;;;;;;;;17.20;99.90;;;;;;8342851;28;19932;-72
2023/06/01 13:09:35;;;;;;;;;;;17.10;99.90;;;;;;8357568;28;20449;-72
2023/06/01 13:13:38;;;;;;;;;;;17.10;99.90;;;;;;8352610;28;19964;-72
2023/06/01 13:17:42;;;;;;;;;;;17.00;99.90;;;;;;8355799;28;19924;-73
2023/06/01 13:21:44;;;;;;;;;;;16.90;99.90;;;;;;8355117;28;20456;-72
2023/06/01 13:25:45;;;;;;;;;;;16.80;99.90;;;;;;8363759;28;19928;-72
2023/06/01 13:29:47;;;;;;;;;;;16.70;99.90;;;;;;8363188;28;20432;-73
2023/06/01 13:33:49;;;;;;;;;;;16.70;99.90;;;;;;8348028;28;19987;-72
2023/06/01 13:37:51;;;;;;;;;;;16.70;99.90;;;;;;8364080;28;20010;-73
2023/06/01 13:41:53;;;;;;;;;;;16.70;99.90;;;;;;8369412;28;19951;-73
2023/06/01 13:45:54;;;;;;;;;;;16.70;99.90;;;;;;8360972;28;19944;-73
2023/06/01 13:49:56;;;;;;;;;;;16.60;99.90;;;;;;8360579;28;19929;-74
2023/06/01 13:53:58;;;;;;;;;;;16.60;99.90;;;;;;8359644;28;19936;-72
2023/06/01 13:57:59;;;;;;;;;;;16.50;99.90;;;;;;8356888;28;19933;-72
2023/06/01 14:02:01;;;;;;;;;;;16.50;99.90;;;;;;8357101;28;20252;-72
2023/06/01 14:06:03;;;;;;;;;;;16.50;99.90;;;;;;8360906;28;20007;-72
2023/06/01 14:10:06;;;;;;;;;;;16.40;99.90;;;;;;8369221;28;19932;-73
2023/06/01 14:14:07;;;;;;;;;;;16.40;99.90;;;;;;8368133;28;20559;-72
2023/06/01 14:18:09;;;;;;;;;;;16.40;99.90;;;;;;8368693;28;19936;-72
2023/06/01 14:22:11;;;;;;;;;;;16.40;99.90;;;;;;8365281;28;19981;-73
2023/06/01 14:26:13;;;;;;;;;;;16.50;99.90;;;;;;8359138;28;19964;-73
2023/06/01 14:30:14;;;;;;;;;;;16.50;99.90;;;;;;8366063;28;19997;-72
2023/06/01 14:34:16;;;;;;;;;;;16.40;99.90;;;;;;8369906;28;19928;-73
2023/06/01 14:38:18;;;;;;;;;;;16.40;99.90;;;;;;8376400;28;19969;-73
2023/06/01 14:42:20;;;;;;;;;;;16.40;99.90;;;;;;8356309;28;20277;-73
2023/06/01 14:46:21;;;;;;;;;;;16.40;99.90;;;;;;8359323;28;20285;-72
2023/06/01 14:50:23;;;;;;;;;;;16.40;99.90;;;;;;8360972;28;19978;-72
2023/06/01 14:54:25;;;;;;;;;;;16.30;99.90;;;;;;8353955;28;19929;-73
2023/06/01 14:58:37;;;;;;;;;;;16.30;99.90;;;;;;8367412;28;19932;-72
2023/06/01 15:02:39;;;;;;;;;;;16.30;99.90;;;;;;8359465;28;19947;-73
2023/06/01 15:06:41;;;;;;;;;;;16.20;99.90;;;;;;8361972;28;20372;-72
2023/06/01 15:10:44;;;;;;;;;;;16.20;99.90;;;;;;8346735;28;19931;-72
2023/06/01 15:14:47;;;;;;;;;;;16.20;99.90;;;;;;8353052;28;19970;-72
2023/06/01 15:18:49;;;;;;;;;;;16.20;99.90;;;;;;8356476;28;20002;-72
2023/06/01 15:22:51;;;;;;;;;;;16.20;99.90;;;;;;8355762;28;19928;-73
2023/06/01 15:26:52;;;;;;;;;;;16.20;99.90;;;;;;8351378;28;19928;-72
2023/06/01 15:30:54;;;;;;;;;;;16.20;99.90;;;;;;8349700;28;19932;-73
2023/06/01 15:34:56;;;;;;;;;;;16.20;99.90;;;;;;8365483;28;19924;-73
2023/06/01 15:38:58;;;;;;;;;;;16.30;99.90;;;;;;8357851;28;20027;-72
2023/06/01 15:42:59;;;;;;;;;;;16.20;99.90;;;;;;8361313;28;19928;-74
2023/06/01 15:47:02;;;;;;;;;;;16.20;99.90;;;;;;8358739;28;19928;-73
2023/06/01 15:51:03;;;;;;;;;;;16.20;99.90;;;;;;8358099;28;19931;-73
2023/06/01 15:55:07;;;;;;;;;;;16.20;99.90;;;;;;8359551;28;19933;-72
2023/06/01 15:59:14;;;;;;;;;;;16.20;99.90;;;;;;8343145;28;19924;-72
2023/06/01 16:03:18;;;;;;;;;;;16.20;99.90;;;;;;8350259;28;20230;-72
2023/06/01 16:07:20;;;;;;;;;;;16.20;99.90;;;;;;8370062;28;20713;-73
2023/06/01 16:11:21;;;;;;;;;;;16.10;99.90;;;;;;8370306;28;19955;-73
2023/06/01 16:15:23;;;;;;;;;;;16.10;99.90;;;;;;8358050;28;19924;-72
2023/06/01 16:19:25;;;;;;;;;;;16.10;99.90;;;;;;8350617;28;19982;-72
2023/06/01 16:23:30;;;;;;;;;;;16.00;99.90;;;;;;8373191;28;19971;-73
2023/06/01 16:27:31;;;;;;;;;;;16.00;99.90;;;;;;8364008;28;19975;-73
2023/06/01 16:31:33;;;;;;;;;;;15.90;99.90;;;;;;8365492;28;20372;-74
2023/06/01 16:35:35;;;;;;;;;;;15.90;99.90;;;;;;8359499;28;20045;-73
2023/06/01 16:39:36;;;;;;;;;;;15.80;99.90;;;;;;8376098;28;19928;-72
2023/06/01 16:43:38;;;;;;;;;;;15.80;99.90;;;;;;8373617;28;19940;-74
2023/06/01 16:47:40;;;;;;;;;;;15.90;99.90;;;;;;8370054;28;19986;-72
2023/06/01 16:51:42;;;;;;;;;;;15.80;99.90;;;;;;8364059;28;20391;-73
2023/06/01 16:55:43;;;;;;;;;;;15.80;99.90;;;;;;8372091;28;19974;-73
2023/06/01 16:59:45;;;;;;;;;;;15.80;99.90;;;;;;8365819;28;19985;-73
2023/06/01 17:03:48;;;;;;;;;;;15.70;99.90;;;;;;8353266;28;19929;-73
2023/06/01 17:07:50;;;;;;;;;;;15.70;99.90;;;;;;8362763;28;19932;-74
2023/06/01 17:11:52;;;;;;;;;;;15.70;99.90;;;;;;8366514;28;19932;-72
2023/06/01 17:15:54;;;;;;;;;;;15.70;99.90;;;;;;8360336;28;20434;-73
2023/06/01 17:19:55;;;;;;;;;;;15.70;99.90;;;;;;8348021;28;19940;-73
2023/06/01 17:23:57;;;;;;;;;;;15.60;99.90;;;;;;8370692;28;20373;-73
2023/06/01 17:27:59;;;;;;;;;;;15.60;99.90;;;;;;8346035;28;20906;-72
2023/06/01 17:32:01;;;;;;;;;;;15.50;99.90;;;;;;8366840;28;19927;-73
2023/06/01 17:36:03;;;;;;;;;;;15.50;99.90;;;;;;8360141;28;19928;-73
2023/06/01 17:40:05;;;;;;;;;;;15.40;99.90;;;;;;8346454;28;20031;-73
2023/06/01 17:44:07;;;;;;;;;;;15.30;99.90;;;;;;8363189;28;19929;-73
2023/06/01 17:48:08;;;;;;;;;;;15.40;99.90;;;;;;8343983;28;20393;-73
2023/06/01 17:52:10;;;;;;;;;;;15.30;99.90;;;;;;8361331;28;19932;-73
2023/06/01 17:56:12;;;;;;;;;;;15.30;99.90;;;;;;8359428;28;19933;-73
2023/06/01 18:00:15;;;;;;;;;;;15.30;99.90;;;;;;8351724;28;19940;-73
2023/06/01 18:04:17;;;;;;;;;;;15.20;99.90;;;;;;8361816;28;19924;-73
2023/06/01 18:08:18;;;;;;;;;;;15.10;99.90;;;;;;8357380;28;19924;-73
2023/06/01 18:12:20;;;;;;;;;;;15.00;99.90;;;;;;8339456;28;19925;-73
2023/06/01 18:16:22;;;;;;;;;;;15.00;99.90;;;;;;8364951;28;19932;-72
2023/06/01 18:20:23;;;;;;;;;;;14.90;99.90;;;;;;8365398;28;19924;-73
2023/06/01 18:24:25;;;;;;;;;;;14.90;99.90;;;;;;8369991;28;19932;-73
2023/06/01 18:28:27;;;;;;;;;;;14.80;99.90;;;;;;8370096;28;19932;-73
2023/06/01 18:32:28;;;;;;;;;;;14.80;99.90;;;;;;8348000;28;19948;-73
2023/06/01 18:36:31;;;;;;;;;;;14.80;99.90;;;;;;8368756;28;19944;-73
2023/06/01 18:40:33;;;;;;;;;;;14.80;99.90;;;;;;8378813;28;19939;-74
2023/06/01 18:44:34;;;;;;;;;;;14.70;99.90;;;;;;8375281;28;19933;-73
2023/06/01 18:48:36;;;;;;;;;;;14.70;99.90;;;;;;8361723;28;20304;-73
2023/06/01 18:52:38;;;;;;;;;;;14.70;99.90;;;;;;8359303;28;19932;-74
2023/06/01 18:56:40;;;;;;;;;;;14.70;99.90;;;;;;8350118;28;19929;-74
2023/06/01 19:00:46;;;;;;;;;;;14.60;99.90;;;;;;8362302;28;19960;-74
2023/06/01 19:04:48;;;;;;;;;;;14.60;99.90;;;;;;8363849;28;20281;-73
2023/06/01 19:08:50;;;;;;;;;;;14.50;99.90;;;;;;8367061;28;21523;-73
2023/06/01 19:12:53;;;;;;;;;;;14.50;99.90;;;;;;8362941;28;19932;-74
2023/06/01 19:16:58;;;;;;;;;;;14.50;99.90;;;;;;8349659;28;19962;-74
2023/06/01 19:21:03;;;;;;;;;;;14.50;99.90;;;;;;8371681;28;20268;-73
2023/06/01 19:25:05;;;;;;;;;;;14.50;99.90;;;;;;8367783;28;19932;-73
2023/06/01 19:29:08;;;;;;;;;;;14.50;99.90;;;;;;8381527;28;19936;-73
2023/06/01 19:33:10;;;;;;;;;;;14.50;99.90;;;;;;8379240;28;19944;-73
2023/06/01 19:37:13;;;;;;;;;;;14.40;99.90;;;;;;8378363;28;19944;-73
2023/06/01 19:41:15;;;;;;;;;;;14.40;99.90;;;;;;8380976;28;19929;-74
2023/06/01 19:45:21;;;;;;;;;;;14.40;99.90;;;;;;8374091;28;20802;-73
2023/06/01 19:49:23;;;;;;;;;;;14.40;99.90;;;;;;8379461;28;19947;-73
2023/06/01 19:53:27;;;;;;;;;;;14.40;99.90;;;;;;8372402;28;19928;-73
2023/06/01 19:57:32;;;;;;;;;;;14.40;99.90;;;;;;8365017;28;19975;-73
2023/06/01 20:01:37;;;;;;;;;;;14.40;99.90;;;;;;8374877;28;19940;-73
2023/06/01 20:05:39;;;;;;;;;;;14.30;99.90;;;;;;8359388;28;20391;-73
2023/06/01 20:09:40;;;;;;;;;;;14.30;99.90;;;;;;8371795;28;19932;-73
2023/06/01 20:13:42;;;;;;;;;;;14.30;99.90;;;;;;8371648;28;20039;-74
2023/06/01 20:17:45;;;;;;;;;;;14.30;99.90;;;;;;8356803;28;19982;-73
2023/06/01 20:21:47;;;;;;;;;;;14.20;99.90;;;;;;8368725;28;20310;-73
2023/06/01 20:25:51;;;;;;;;;;;14.20;99.90;;;;;;8360716;28;19925;-73
2023/06/01 20:29:53;;;;;;;;;;;14.10;99.90;;;;;;8360310;28;19924;-73
2023/06/01 20:33:55;;;;;;;;;;;14.10;99.90;;;;;;8365010;28;19932;-73
2023/06/01 20:37:57;;;;;;;;;;;14.10;99.90;;;;;;8362281;28;19974;-73
2023/06/01 20:41:59;;;;;;;;;;;14.10;99.90;;;;;;8366513;28;20396;-74
2023/06/01 20:46:05;;;;;;;;;;;14.10;99.90;;;;;;8351176;28;19932;-73
2023/06/01 20:50:07;;;;;;;;;;;14.10;99.90;;;;;;8363112;28;20076;-73
2023/06/01 20:54:11;;;;;;;;;;;14.10;99.90;;;;;;8360862;28;20322;-74
2023/06/01 20:58:13;;;;;;;;;;;14.00;99.90;;;;;;8378020;28;20019;-73
2023/06/01 21:02:18;;;;;;;;;;;14.00;99.90;;;;;;8382334;28;20014;-73
2023/06/01 21:06:20;;;;;;;;;;;14.00;99.90;;;;;;8383803;28;19924;-74
2023/06/01 21:10:22;;;;;;;;;;;13.90;99.90;;;;;;8372493;28;20457;-73
2023/06/01 21:14:24;;;;;;;;;;;13.90;99.90;;;;;;8381745;28;20469;-73
2023/06/01 21:18:25;;;;;;;;;;;13.80;99.90;;;;;;8378803;28;20034;-74
2023/06/01 21:22:27;;;;;;;;;;;13.90;99.90;;;;;;8373905;28;19928;-74
2023/06/01 21:26:29;;;;;;;;;;;13.80;99.90;;;;;;8395232;28;19932;-74
2023/06/01 21:30:30;;;;;;;;;;;13.80;99.90;;;;;;8391336;28;20308;-74
2023/06/01 21:34:32;;;;;;;;;;;13.80;99.90;;;;;;8377395;28;20284;-74
2023/06/01 21:38:34;;;;;;;;;;;13.70;99.90;;;;;;8393056;28;19925;-74
2023/06/01 21:42:38;;;;;;;;;;;13.70;99.90;;;;;;8391578;28;19936;-74
2023/06/01 21:46:41;;;;;;;;;;;13.70;99.90;;;;;;8394310;28;19928;-74
2023/06/01 21:50:43;;;;;;;;;;;13.70;99.90;;;;;;8392158;28;20320;-74
2023/06/01 21:54:45;;;;;;;;;;;13.70;99.90;;;;;;8392000;28;19928;-73
2023/06/01 21:58:47;;;;;;;;;;;13.60;99.90;;;;;;8382997;28;20281;-74
2023/06/01 22:02:48;;;;;;;;;;;13.60;99.90;;;;;;8390092;28;19954;-74
2023/06/01 22:06:50;;;;;;;;;;;13.60;99.90;;;;;;8386049;28;19931;-73
2023/06/01 22:10:52;;;;;;;;;;;13.60;99.90;;;;;;8393426;28;19936;-74
2023/06/01 22:14:54;;;;;;;;;;;13.60;99.90;;;;;;8394525;28;19928;-74
2023/06/01 22:18:56;;;;;;;;;;;13.50;99.90;;;;;;8392216;28;19977;-74
2023/06/01 22:22:57;;;;;;;;;;;13.40;99.90;;;;;;8392902;28;19932;-74
2023/06/01 22:26:59;;;;;;;;;;;13.50;99.90;;;;;;8390108;28;20413;-73
2023/06/01 22:31:01;;;;;;;;;;;13.40;99.90;;;;;;8375779;28;19928;-74
2023/06/01 22:35:03;;;;;;;;;;;13.40;99.90;;;;;;8389800;28;19970;-73
2023/06/01 22:39:05;;;;;;;;;;;13.40;99.90;;;;;;8373518;28;19947;-74
2023/06/01 22:58:18;;;;;;;;;;;13.40;99.90;;;;;;8397666;28;20179;-74
2023/06/01 23:02:20;;;;;;;;;;;13.30;99.90;;;;;;8378873;28;19928;-74
2023/06/01 23:06:22;;;;;;;;;;;13.40;99.90;;;;;;8395104;28;19929;-74
2023/06/01 23:10:24;;;;;;;;;;;13.40;99.90;;;;;;8391055;28;19928;-74
2023/06/01 23:14:29;;;;;;;;;;;13.40;99.90;;;;;;8397670;28;20296;-74
2023/06/01 23:18:31;;;;;;;;;;;13.30;99.90;;;;;;8400073;28;19924;-74
2023/06/01 23:22:36;;;;;;;;;;;13.40;99.90;;;;;;8396304;28;20398;-73
2023/06/01 23:36:52;;;;;;;;;;;13.40;99.90;;;;;;8396671;28;19927;-73
2023/06/01 23:40:54;;;;;;;;;;;13.40;99.90;;;;;;8392410;28;19928;-74
2023/06/01 23:44:56;;;;;;;;;;;13.40;99.90;;;;;;8399364;28;19924;-74
2023/06/01 23:48:58;;;;;;;;;;;13.40;99.90;;;;;;8398237;28;20276;-74
2023/06/01 23:53:00;;;;;;;;;;;13.40;99.90;;;;;;8394663;28;19924;-74
2023/06/01 23:57:02;;;;;;;;;;;13.40;99.90;;;;;;8399085;28;20380;-73
